Time;durP1;ratioP1;P1;durP2;ratioP2;P2;SDS_P1;SDS_P2;PMS_P1;PMS_P2;Temp;Humidity;BMP_temperature;BMP_pressure;BME280_temperature;BME280_humidity;BME280_pressure;Samples;Min_cycle;Max_cycle;Signal;HPM_P1;HPM_P2
2021/12/07 00:00:10;;;;;;;;;7.25;2.00;;;;;5.94;76.43;100991.47;4969888;28;45659;-73
2021/12/07 00:02:36;;;;;;;;;4.00;2.50;;;;;5.99;76.93;101010.91;4958436;28;45438;-73
2021/12/07 00:05:03;;;;;;;;;0.75;0.00;;;;;6.02;76.68;101027.72;4971244;28;45221;-73
2021/12/07 00:07:28;;;;;;;;;4.50;4.00;;;;;5.88;77.00;100996.38;4960395;28;45547;-73
2021/12/07 00:09:54;;;;;;;;;2.00;2.00;;;;;5.81;76.69;100979.47;4971022;28;45804;-73
2021/12/07 00:12:20;;;;;;;;;5.25;2.00;;;;;5.93;76.52;101011.53;4958169;28;45334;-73
2021/12/07 00:14:45;;;;;;;;;5.00;1.00;;;;;5.95;76.38;101015.13;4962212;28;45422;-73
2021/12/07 00:17:12;;;;;;;;;3.25;2.00;;;;;5.83;76.55;100985.69;4964174;28;47044;-73
2021/12/07 00:19:37;;;;;;;;;2.25;2.25;;;;;5.84;76.26;100990.09;4963006;28;46133;-73
2021/12/07 00:22:06;;;;;;;;;6.50;4.25;;;;;5.81;76.70;100980.34;4959407;28;45345;-73
2021/12/07 00:24:32;;;;;;;;;4.00;2.25;;;;;5.91;77.13;100999.13;4962976;28;45164;-73
2021/12/07 00:26:58;;;;;;;;;2.00;2.00;;;;;5.91;76.95;100989.56;4959424;28;45319;-73
2021/12/07 00:29:24;;;;;;;;;2.00;2.00;;;;;5.90;76.57;100998.22;4970146;28;47802;-73
2021/12/07 00:31:56;;;;;;;;;2.00;1.00;;;;;5.96;76.68;101005.53;4978205;28;45430;-73
2021/12/07 00:36:51;;;;;;;;;3.25;2.00;;;;;5.94;76.78;101001.97;4958940;28;45379;-73
2021/12/07 00:39:20;;;;;;;;;3.50;1.25;;;;;5.98;76.64;101012.66;4962988;28;45367;-73
2021/12/07 00:41:48;;;;;;;;;1.50;1.50;;;;;6.04;76.37;101017.28;4958958;28;45256;-73
2021/12/07 00:44:15;;;;;;;;;2.00;2.00;;;;;6.08;76.50;101023.56;4969980;28;45324;-72
2021/12/07 00:46:40;;;;;;;;;1.75;1.00;;;;;6.02;76.82;101011.97;5009976;28;46046;-73
2021/12/07 00:49:06;;;;;;;;;4.25;3.00;;;;;6.16;76.71;101025.72;4968409;28;46186;-73
2021/12/07 00:51:31;;;;;;;;;4.25;1.25;;;;;6.01;76.59;100997.03;4975423;28;45285;-72
2021/12/07 00:53:57;;;;;;;;;2.00;1.00;;;;;6.18;76.39;101029.31;4972295;28;45610;-73
2021/12/07 00:56:22;;;;;;;;;6.50;2.00;;;;;6.15;76.80;101025.66;4963143;28;45473;-73
2021/12/07 00:58:49;;;;;;;;;3.75;1.25;;;;;6.20;76.25;101032.00;4961817;28;47390;-73
2021/12/07 01:01:17;;;;;;;;;3.50;0.75;;;;;6.24;75.97;101045.31;4976129;28;45284;-73
2021/12/07 01:03:43;;;;;;;;;2.75;1.00;;;;;6.22;76.63;101032.97;4962749;28;46757;-73
2021/12/07 01:06:23;;;;;;;;;3.25;2.00;;;;;6.21;75.45;101024.19;4964921;28;45218;-73
2021/12/07 01:25:03;;;;;;;;;1.00;1.00;;;;;6.32;75.62;101024.69;4969444;28;45315;-73
2021/12/07 01:27:29;;;;;;;;;2.25;2.00;;;;;6.21;74.34;101015.41;4962769;28;45533;-73
2021/12/07 01:30:18;;;;;;;;;1.00;1.00;;;;;6.20;75.11;101025.03;4969119;28;45462;-73
2021/12/07 01:36:18;;;;;;;;;0.25;0.25;;;;;6.10;74.89;101021.91;4967028;28;45256;-72
2021/12/07 01:59:35;;;;;;;;;2.00;2.00;;;;;5.86;74.92;101038.28;4963116;28;45264;-73
2021/12/07 02:02:11;;;;;;;;;1.25;0.75;;;;;5.77;75.05;101030.88;4973126;28;47447;-73
2021/12/07 02:04:37;;;;;;;;;1.50;0.25;;;;;5.74;74.91;101028.13;4969916;28;45428;-73
2021/12/07 02:07:05;;;;;;;;;2.00;0.75;;;;;5.74;76.05;101035.06;4975533;28;45472;-73
2021/12/07 02:09:30;;;;;;;;;1.25;0.00;;;;;5.68;75.63;101014.69;4968038;28;45489;-73
2021/12/07 02:11:59;;;;;;;;;0.25;0.25;;;;;5.71;76.11;101022.69;4957112;28;47454;-73
2021/12/07 02:14:25;;;;;;;;;1.00;1.00;;;;;5.72;75.67;101015.75;4971730;28;45437;-73
2021/12/07 02:16:59;;;;;;;;;1.00;0.00;;;;;5.74;75.19;101021.94;4957011;28;45365;-73
2021/12/07 02:19:25;;;;;;;;;1.75;1.00;;;;;5.66;75.73;101007.56;4960491;28;45427;-73
2021/12/07 02:21:53;;;;;;;;;0.00;0.00;;;;;5.64;74.75;101006.63;4968829;28;46469;-72
2021/12/07 02:24:19;;;;;;;;;1.00;1.00;;;;;5.69;75.38;101018.25;4966693;28;45565;-73
2021/12/07 02:26:47;;;;;;;;;0.50;0.00;;;;;5.67;75.28;101035.63;4959511;28;45431;-73
2021/12/07 02:29:13;;;;;;;;;0.00;0.00;;;;;5.61;74.88;101031.88;4961292;28;45406;-73
2021/12/07 02:31:39;;;;;;;;;2.00;1.00;;;;;5.52;75.44;101020.06;4974900;28;45375;-72
2021/12/07 02:34:05;;;;;;;;;1.50;1.00;;;;;5.61;75.03;101038.84;4970275;28;45362;-73
2021/12/07 02:36:31;;;;;;;;;6.75;2.00;;;;;5.57;74.96;101044.75;4961216;28;45134;-72
2021/12/07 02:38:57;;;;;;;;;5.00;2.00;;;;;5.53;75.27;101043.72;4963420;28;45442;-73
2021/12/07 02:41:23;;;;;;;;;0.25;0.00;;;;;5.51;74.71;101044.47;4962282;28;45276;-73
2021/12/07 02:43:48;;;;;;;;;0.50;0.00;;;;;5.37;75.20;101028.94;4970332;28;44800;-73
2021/12/07 02:46:15;;;;;;;;;0.00;0.00;;;;;5.32;75.34;101021.69;5010554;28;45292;-73
2021/12/07 02:48:40;;;;;;;;;2.25;1.00;;;;;5.27;74.95;101016.25;4987522;27;45697;-72
2021/12/07 02:51:06;;;;;;;;;1.00;1.00;;;;;5.33;75.04;101034.00;4966999;28;47458;-72
2021/12/07 02:53:33;;;;;;;;;3.50;1.00;;;;;5.26;74.97;101030.16;4962450;28;46044;-73
2021/12/07 02:56:00;;;;;;;;;0.50;0.50;;;;;5.30;75.14;101032.09;4957840;28;45294;-73
2021/12/07 02:58:26;;;;;;;;;0.00;0.00;;;;;5.18;75.33;101005.28;4959355;28;45423;-74
2021/12/07 03:01:02;;;;;;;;;0.25;0.00;;;;;5.20;75.51;101029.84;4965848;28;46287;-73
2021/12/07 03:03:31;;;;;;;;;5.00;0.00;;;;;5.17;75.64;101040.19;4959339;28;45366;-73
2021/12/07 03:06:20;;;;;;;;;0.00;0.00;;;;;5.09;75.67;101025.78;4977020;28;44843;-73
2021/12/07 03:09:33;;;;;;;;;0.00;0.00;;;;;5.05;75.91;101029.09;4968709;28;45508;-73
2021/12/07 03:28:11;;;;;;;;;3.50;2.00;;;;;5.08;76.08;101050.22;4962165;28;45308;-71
2021/12/07 03:30:37;;;;;;;;;2.50;1.50;;;;;5.11;76.65;101071.31;4968476;28;45452;-72
2021/12/07 03:33:03;;;;;;;;;2.00;1.00;;;;;5.13;76.55;101072.31;4961666;28;46739;-72
2021/12/07 03:35:30;;;;;;;;;1.50;1.50;;;;;5.11;76.50;101077.47;4968541;28;45241;-71
2021/12/07 03:37:56;;;;;;;;;2.00;1.00;;;;;5.05;76.88;101066.66;4961755;28;45341;-72
2021/12/07 03:40:22;;;;;;;;;5.00;2.00;;;;;5.12;76.06;101060.91;4968168;27;47814;-72
2021/12/07 03:42:47;;;;;;;;;5.00;1.50;;;;;5.14;76.72;101061.88;4960791;28;45457;-72
2021/12/07 03:45:13;;;;;;;;;5.00;1.00;;;;;5.06;76.50;101042.25;4974525;28;45260;-72
2021/12/07 03:47:39;;;;;;;;;3.00;1.75;;;;;5.16;76.52;101065.50;5031479;28;45399;-72
2021/12/07 03:50:06;;;;;;;;;2.00;1.00;;;;;5.01;76.54;101053.31;4976191;28;47470;-72
2021/12/07 03:52:32;;;;;;;;;4.00;1.00;;;;;4.96;76.24;101052.19;4959517;28;46135;-72
2021/12/07 03:54:58;;;;;;;;;2.00;1.00;;;;;4.97;76.12;101039.19;4970083;28;45312;-72
2021/12/07 03:57:23;;;;;;;;;2.75;1.00;;;;;4.97;76.40;101038.28;4959991;28;45206;-72
2021/12/07 03:59:48;;;;;;;;;1.00;1.00;;;;;5.05;75.93;101053.56;4970160;28;45220;-72
2021/12/07 04:02:14;;;;;;;;;1.00;1.00;;;;;4.88;76.35;101023.00;4958419;28;46879;-72
2021/12/07 04:04:39;;;;;;;;;0.25;0.25;;;;;4.98;76.43;101051.44;4969806;28;45536;-71
2021/12/07 04:07:05;;;;;;;;;2.00;1.00;;;;;4.98;76.41;101040.97;4959911;28;45361;-71
2021/12/07 04:09:32;;;;;;;;;1.25;0.25;;;;;4.91;76.05;101031.03;4963661;28;45469;-72
2021/12/07 04:11:58;;;;;;;;;4.50;1.00;;;;;4.89;76.72;101041.41;4962386;28;48191;-72
2021/12/07 04:14:23;;;;;;;;;0.00;0.00;;;;;4.85;76.42;101030.72;4968877;28;45524;-72
2021/12/07 04:16:48;;;;;;;;;1.00;1.00;;;;;4.97;76.66;101059.25;4970490;28;45457;-72
2021/12/07 04:19:14;;;;;;;;;2.00;1.00;;;;;4.81;76.23;101039.22;4963310;28;45654;-72
2021/12/07 04:21:39;;;;;;;;;2.00;0.50;;;;;4.93;76.07;101066.06;4976363;28;46524;-72
2021/12/07 04:24:05;;;;;;;;;3.00;0.75;;;;;4.80;76.05;101040.94;4971280;28;45316;-71
2021/12/07 04:26:31;;;;;;;;;3.00;0.75;;;;;4.82;76.55;101039.31;4966074;28;45330;-72
2021/12/07 04:28:57;;;;;;;;;3.25;1.00;;;;;4.83;76.31;101035.88;4964970;28;45228;-72
2021/12/07 04:31:23;;;;;;;;;0.75;0.75;;;;;4.89;77.03;101053.59;4963668;28;45495;-71
2021/12/07 04:33:48;;;;;;;;;2.25;1.00;;;;;4.84;76.38;101050.75;4963671;28;45241;-72
2021/12/07 04:36:14;;;;;;;;;8.25;8.25;;;;;4.82;76.26;101048.91;4965322;28;45181;-72
2021/12/07 04:38:40;;;;;;;;;7.75;6.25;;;;;4.79;76.52;101052.25;4962372;28;45155;-71
2021/12/07 04:41:06;;;;;;;;;5.00;3.00;;;;;4.75;76.27;101050.28;4959227;28;45690;-72
2021/12/07 04:43:34;;;;;;;;;9.50;6.00;;;;;4.68;76.07;101053.41;4969718;28;45580;-72
2021/12/07 04:46:17;;;;;;;;;7.00;5.00;;;;;4.54;76.49;101033.44;5002283;28;45280;-72
2021/12/07 04:49:19;;;;;;;;;3.00;1.50;;;;;4.63;76.88;101047.94;4990720;28;46344;-72
2021/12/07 04:59:31;;;;;;;;;0.75;0.75;;;;;4.55;76.86;101049.25;4969144;28;45428;-72
2021/12/07 05:01:56;;;;;;;;;1.25;0.75;;;;;4.55;76.71;101045.72;4959118;28;46462;-72
2021/12/07 05:04:26;;;;;;;;;1.00;1.00;;;;;4.46;76.72;101035.69;4967554;28;45300;-71
2021/12/07 05:06:57;;;;;;;;;3.50;1.00;;;;;4.48;76.68;101034.03;4959981;28;45242;-72
2021/12/07 05:14:30;;;;;;;;;3.00;0.25;;;;;4.17;76.59;100993.19;4961332;28;45438;-71
2021/12/07 05:39:01;;;;;;;;;6.25;2.75;;;;;4.26;77.46;101059.06;4965237;28;45285;-72
2021/12/07 05:41:26;;;;;;;;;2.00;2.00;;;;;4.14;77.49;101039.19;4959854;28;45348;-72
2021/12/07 05:43:52;;;;;;;;;6.50;4.50;;;;;4.24;77.74;101049.34;4968394;28;45932;-73
2021/12/07 05:46:17;;;;;;;;;2.25;1.75;;;;;4.28;77.35;101056.53;5010158;28;45258;-72
2021/12/07 05:48:42;;;;;;;;;7.25;3.00;;;;;4.17;77.90;101037.66;4988554;27;45637;-72
2021/12/07 05:51:08;;;;;;;;;3.50;3.50;;;;;4.21;76.89;101042.22;4965393;28;45754;-72
2021/12/07 05:53:35;;;;;;;;;3.00;1.75;;;;;4.26;77.57;101066.03;4960378;28;45363;-72
2021/12/07 05:56:01;;;;;;;;;8.75;6.25;;;;;4.23;77.06;101063.25;4965037;28;45788;-72
2021/12/07 05:58:26;;;;;;;;;5.00;5.00;;;;;4.08;77.66;101042.38;4966759;28;45404;-72
2021/12/07 06:00:57;;;;;;;;;3.00;2.00;;;;;4.14;77.14;101055.78;4966094;28;45089;-72
2021/12/07 06:03:23;;;;;;;;;4.50;4.50;;;;;4.01;77.48;101043.78;4959289;28;46392;-72
2021/12/07 06:05:49;;;;;;;;;2.50;1.00;;;;;4.12;77.56;101052.22;4966715;28;45261;-72
2021/12/07 06:08:14;;;;;;;;;2.25;2.25;;;;;4.12;77.60;101052.22;4960390;28;45380;-73
2021/12/07 06:10:39;;;;;;;;;5.50;3.00;;;;;4.08;77.14;101047.59;4972295;28;46320;-73
2021/12/07 06:13:05;;;;;;;;;4.00;3.00;;;;;4.02;76.98;101027.25;4959917;28;46519;-73
2021/12/07 06:15:33;;;;;;;;;2.00;2.00;;;;;4.07;77.69;101044.94;4959932;28;45465;-72
2021/12/07 06:17:59;;;;;;;;;2.50;2.00;;;;;4.10;77.29;101052.94;4960021;28;45329;-72
2021/12/07 06:20:25;;;;;;;;;5.00;3.00;;;;;3.97;76.93;101028.72;4968760;28;47089;-72
2021/12/07 06:22:50;;;;;;;;;3.50;3.50;;;;;3.97;77.92;101019.97;4960165;28;47522;-72
2021/12/07 06:25:16;;;;;;;;;2.00;2.00;;;;;3.99;78.06;101026.19;4967381;28;45228;-74
2021/12/07 06:27:42;;;;;;;;;8.75;3.00;;;;;3.97;77.49;101027.81;4974330;28;45325;-75
2021/12/07 06:30:11;;;;;;;;;18.25;11.00;;;;;3.93;76.89;101016.31;4967580;28;46541;-72
2021/12/07 06:32:36;;;;;;;;;14.50;11.75;;;;;3.94;76.67;101023.31;4971792;28;46729;-73
2021/12/07 06:35:02;;;;;;;;;12.25;9.75;;;;;3.92;77.46;101005.75;4966666;28;45300;-72
2021/12/07 06:37:28;;;;;;;;;15.50;13.75;;;;;3.88;77.72;101007.31;4957587;28;45262;-71
2021/12/07 06:39:53;;;;;;;;;9.00;6.75;;;;;3.82;77.33;100996.50;4968233;28;45733;-72
2021/12/07 06:42:19;;;;;;;;;5.00;5.00;;;;;3.80;77.82;100995.53;4957078;28;45427;-73
2021/12/07 06:44:44;;;;;;;;;7.00;6.25;;;;;3.81;77.26;101007.81;4957463;28;45643;-71
2021/12/07 06:47:10;;;;;;;;;6.25;5.00;;;;;3.76;77.45;100996.19;4970184;28;45316;-72
2021/12/07 06:49:35;;;;;;;;;6.25;4.50;;;;;3.72;77.39;100992.47;4967803;28;46067;-71
2021/12/07 06:52:02;;;;;;;;;5.50;5.50;;;;;3.70;77.09;100982.78;4957318;28;45436;-71
2021/12/07 06:54:28;;;;;;;;;6.50;5.00;;;;;3.64;77.77;100971.97;4966812;28;45427;-72
2021/12/07 06:56:53;;;;;;;;;6.25;5.75;;;;;3.68;77.40;100980.06;4958543;28;45181;-72
2021/12/07 06:59:19;;;;;;;;;6.25;5.75;;;;;3.72;77.92;100992.47;4962033;28;45406;-72
2021/12/07 07:01:45;;;;;;;;;7.25;6.25;;;;;3.69;77.63;100976.63;4973034;28;46436;-72
2021/12/07 07:04:12;;;;;;;;;13.25;9.00;;;;;3.54;78.79;100953.19;4974090;28;45462;-72
2021/12/07 07:06:38;;;;;;;;;8.75;7.00;;;;;3.65;79.53;100969.44;4959336;28;45485;-72
2021/12/07 07:09:04;;;;;;;;;10.25;6.00;;;;;3.61;78.97;100959.63;4960157;28;45316;-71
2021/12/07 07:11:30;;;;;;;;;9.00;9.00;;;;;3.63;79.10;100962.34;4957887;28;45579;-72
2021/12/07 07:13:55;;;;;;;;;10.00;9.75;;;;;3.65;78.90;100961.59;4969497;28;45344;-71
2021/12/07 07:16:21;;;;;;;;;8.50;8.50;;;;;3.60;80.07;100955.22;4962653;28;44744;-71
2021/12/07 07:18:46;;;;;;;;;14.00;13.00;;;;;3.67;78.94;100959.06;4960629;28;45475;-72
2021/12/07 07:21:12;;;;;;;;;10.00;9.75;;;;;3.56;79.92;100934.97;4963670;28;45350;-71
2021/12/07 07:23:38;;;;;;;;;15.75;13.00;;;;;3.55;79.68;100934.06;4963682;28;45467;-72
2021/12/07 07:26:04;;;;;;;;;10.50;10.00;;;;;3.58;80.21;100934.25;4959920;28;45266;-71
2021/12/07 07:28:31;;;;;;;;;20.50;12.00;;;;;3.65;79.57;100931.97;4958915;28;45305;-71
2021/12/07 07:30:57;;;;;;;;;13.25;13.00;;;;;3.66;78.87;100926.81;4965110;28;46306;-71
2021/12/07 07:33:23;;;;;;;;;9.50;8.00;;;;;3.75;79.12;100931.63;4958782;28;45276;-72
2021/12/07 07:35:49;;;;;;;;;12.75;10.75;;;;;3.67;79.16;100905.09;4965133;28;45458;-72
2021/12/07 07:38:15;;;;;;;;;24.25;19.00;;;;;3.72;78.76;100906.22;4958796;28;45427;-71
2021/12/07 07:40:44;;;;;;;;;12.25;10.25;;;;;3.74;78.11;100890.63;4957640;28;45646;-71
2021/12/07 07:43:10;;;;;;;;;13.50;13.00;;;;;3.68;78.90;100879.84;4958984;28;45415;-71
2021/12/07 07:45:36;;;;;;;;;11.00;9.00;;;;;3.76;79.45;100897.72;4976670;28;45399;-71
2021/12/07 07:48:01;;;;;;;;;13.50;12.00;;;;;3.76;79.13;100886.38;5020402;27;45311;-72
2021/12/07 07:50:26;;;;;;;;;5.25;3.00;;;;;3.80;78.87;100884.00;4956299;28;45324;-73
2021/12/07 07:52:52;;;;;;;;;10.75;8.00;;;;;3.75;79.21;100871.50;4956059;28;45378;-72
2021/12/07 07:55:17;;;;;;;;;14.25;11.75;;;;;3.86;79.60;100886.03;4957739;28;45369;-72
2021/12/07 07:57:43;;;;;;;;;14.25;10.75;;;;;3.92;78.70;100896.84;4956573;28;45331;-72
2021/12/07 08:00:12;;;;;;;;;15.75;12.50;;;;;3.89;78.63;100886.19;4968774;28;46350;-72
2021/12/07 08:02:38;;;;;;;;;30.00;26.75;;;;;3.90;79.16;100867.09;4958453;28;45341;-72
2021/12/07 08:05:04;;;;;;;;;18.25;15.75;;;;;3.94;79.13;100869.03;4969219;28;45287;-72
2021/12/07 08:07:29;;;;;;;;;32.75;28.50;;;;;3.97;79.66;100866.56;4961560;28;45483;-72
2021/12/07 08:09:55;;;;;;;;;61.00;49.00;;;;;3.94;79.08;100852.44;4962322;28;46155;-72
2021/12/07 08:12:20;;;;;;;;;14.75;11.00;;;;;3.98;79.19;100860.53;4958113;28;45329;-72
2021/12/07 08:14:46;;;;;;;;;17.75;15.25;;;;;4.06;79.40;100876.59;4958070;28;45566;-72
2021/12/07 08:17:11;;;;;;;;;22.25;15.50;;;;;4.03;79.61;100851.22;4971456;28;45945;-71
2021/12/07 08:19:37;;;;;;;;;17.00;15.00;;;;;3.96;80.40;100838.63;4956294;28;46398;-72
2021/12/07 08:22:03;;;;;;;;;18.75;15.75;;;;;4.12;78.91;100848.16;4967085;28;45448;-72
2021/12/07 08:24:29;;;;;;;;;20.25;18.25;;;;;4.18;78.69;100850.19;4957389;28;45498;-72
2021/12/07 08:26:54;;;;;;;;;15.25;15.00;;;;;4.20;79.29;100840.69;4957889;28;46045;-72
2021/12/07 08:29:20;;;;;;;;;22.50;19.00;;;;;4.14;78.66;100814.22;4956468;28;47029;-72
2021/12/07 08:31:45;;;;;;;;;22.00;18.00;;;;;4.21;79.43;100811.09;4956943;28;45433;-72
2021/12/07 08:34:10;;;;;;;;;32.50;24.00;;;;;4.37;79.33;100833.69;4957530;28;45344;-72
2021/12/07 08:36:36;;;;;;;;;32.25;24.50;;;;;4.34;79.55;100823.97;4963469;28;46014;-72
2021/12/07 08:39:04;;;;;;;;;30.00;25.75;;;;;4.45;79.19;100829.72;4957322;28;46502;-72
2021/12/07 08:41:29;;;;;;;;;24.75;20.25;;;;;4.47;79.45;100826.34;4961368;28;45459;-72
2021/12/07 08:43:56;;;;;;;;;32.50;30.00;;;;;4.53;78.60;100811.78;4957186;28;45355;-72
2021/12/07 08:46:22;;;;;;;;;33.25;29.25;;;;;4.62;79.08;100826.22;4970585;28;45687;-72
2021/12/07 08:48:47;;;;;;;;;27.75;23.50;;;;;4.57;79.35;100814.63;4960991;28;46100;-72
2021/12/07 08:51:15;;;;;;;;;29.50;20.50;;;;;4.61;79.02;100790.38;4958449;28;45458;-72
2021/12/07 08:54:19;;;;;;;;;23.75;17.50;;;;;4.69;78.81;100785.53;4957526;28;45472;-72
2021/12/07 09:01:55;;;;;;;;;24.75;20.50;;;;;4.77;78.35;100783.28;4957364;28;45397;-73
2021/12/07 09:04:21;;;;;;;;;22.50;15.50;;;;;4.63;78.33;100739.00;4959538;28;45268;-72
2021/12/07 09:06:47;;;;;;;;;26.00;24.25;;;;;4.62;78.63;100724.13;4964463;28;45331;-71
2021/12/07 09:09:14;;;;;;;;;29.00;24.75;;;;;4.81;78.74;100756.41;4967249;28;46626;-73
2021/12/07 09:11:41;;;;;;;;;30.75;23.75;;;;;4.81;78.58;100740.69;4956735;28;45302;-72
2021/12/07 09:14:10;;;;;;;;;27.00;21.50;;;;;4.70;78.92;100729.72;4963902;28;45373;-72
2021/12/07 09:16:36;;;;;;;;;24.75;23.25;;;;;4.71;78.59;100739.38;4972755;28;45531;-72
2021/12/07 09:19:04;;;;;;;;;25.25;20.25;;;;;4.72;78.46;100730.69;4965040;28;45602;-72
2021/12/07 09:21:29;;;;;;;;;27.00;20.00;;;;;4.78;78.62;100728.34;4960241;28;45514;-72
2021/12/07 09:23:55;;;;;;;;;17.25;15.50;;;;;4.64;78.23;100696.28;4960227;28;45488;-72
2021/12/07 09:26:20;;;;;;;;;25.50;20.75;;;;;4.67;79.19;100699.03;4961461;28;45413;-73
2021/12/07 09:28:46;;;;;;;;;19.25;17.50;;;;;4.80;79.26;100715.34;4958107;28;46406;-73
2021/12/07 09:31:12;;;;;;;;;20.25;16.25;;;;;4.84;78.64;100717.25;4961589;28;45474;-72
2021/12/07 09:33:40;;;;;;;;;22.00;15.00;;;;;4.82;78.64;100732.91;4957257;28;45482;-72
2021/12/07 09:36:11;;;;;;;;;21.50;16.25;;;;;4.77;79.05;100717.81;4962286;28;45317;-72
2021/12/07 09:38:38;;;;;;;;;19.00;17.00;;;;;4.77;79.02;100700.38;4959440;28;46596;-72
2021/12/07 09:41:06;;;;;;;;;19.25;17.25;;;;;4.93;78.69;100733.41;4962248;28;45459;-72
2021/12/07 09:43:32;;;;;;;;;23.00;23.00;;;;;4.94;78.99;100728.22;4962375;28;45612;-72
2021/12/07 09:45:58;;;;;;;;;28.00;19.75;;;;;4.96;78.75;100719.53;4988326;28;45415;-72
2021/12/07 09:48:24;;;;;;;;;22.00;20.25;;;;;5.00;78.57;100726.72;4999394;27;46441;-72
2021/12/07 09:50:51;;;;;;;;;13.50;12.00;;;;;5.02;78.85;100727.69;4965253;28;45461;-72
2021/12/07 09:53:17;;;;;;;;;23.00;17.25;;;;;4.97;78.79;100703.00;4959023;28;45440;-72
2021/12/07 09:55:45;;;;;;;;;25.50;15.75;;;;;5.07;78.60;100720.91;4966830;28;47446;-72
2021/12/07 09:58:11;;;;;;;;;18.50;15.25;;;;;5.07;78.61;100723.53;4963184;28;46327;-72
2021/12/07 10:00:38;;;;;;;;;19.25;14.25;;;;;5.00;78.29;100711.00;4964997;28;45400;-72
2021/12/07 10:03:04;;;;;;;;;23.25;17.25;;;;;4.85;78.59;100700.75;4958679;28;45655;-73
2021/12/07 10:05:31;;;;;;;;;16.25;15.50;;;;;5.07;78.43;100739.25;4969206;28;45428;-72
2021/12/07 10:07:58;;;;;;;;;22.25;17.25;;;;;4.93;77.94;100725.56;4961355;28;46625;-72
2021/12/07 10:10:48;;;;;;;;;19.00;14.00;;;;;4.99;77.90;100722.31;4966433;28;45323;-72
2021/12/07 10:13:15;;;;;;;;;23.00;14.50;;;;;4.90;78.26;100691.34;4972621;28;45391;-73
2021/12/07 10:15:42;;;;;;;;;17.00;12.25;;;;;4.96;78.37;100691.66;4965182;28;45373;-72
2021/12/07 10:18:16;;;;;;;;;15.50;12.00;;;;;4.98;79.16;100691.69;4969197;28;46966;-72
2021/12/07 10:20:55;;;;;;;;;18.25;16.00;;;;;4.90;78.73;100673.94;4964866;28;44736;-72
2021/12/07 10:23:20;;;;;;;;;14.75;12.50;;;;;5.00;79.15;100666.47;4957300;28;45320;-72
2021/12/07 10:25:54;;;;;;;;;19.75;15.25;;;;;4.98;78.54;100647.16;4964872;28;45476;-72
2021/12/07 10:28:50;;;;;;;;;17.75;14.25;;;;;4.99;78.42;100643.75;4959521;28;45544;-71
2021/12/07 10:31:21;;;;;;;;;17.00;14.25;;;;;4.86;78.52;100610.84;4994394;28;45435;-72
2021/12/07 10:34:17;;;;;;;;;22.25;14.75;;;;;5.09;78.97;100630.19;4969182;28;45300;-72
2021/12/07 10:36:46;;;;;;;;;17.00;13.75;;;;;5.11;78.37;100626.81;4968555;28;45372;-71
2021/12/07 10:39:19;;;;;;;;;21.25;16.50;;;;;4.88;78.77;100602.25;4995774;28;48094;-72
2021/12/07 10:41:54;;;;;;;;;18.75;15.00;;;;;5.15;78.73;100601.63;4965912;28;45263;-72
2021/12/07 10:44:25;;;;;;;;;16.00;12.75;;;;;5.12;79.46;100576.19;4968993;28;45479;-72
2021/12/07 10:47:03;;;;;;;;;24.50;19.75;;;;;5.28;78.98;100577.75;5028287;28;45511;-71
2021/12/07 10:49:30;;;;;;;;;23.25;16.25;;;;;5.35;78.51;100563.19;4964587;28;46150;-72
2021/12/07 10:52:06;;;;;;;;;12.50;12.50;;;;;5.27;79.65;100534.03;4957108;27;45288;-71
2021/12/07 10:54:36;;;;;;;;;18.50;16.25;;;;;5.36;79.37;100536.13;4965608;28;45521;-72
2021/12/07 10:57:05;;;;;;;;;26.25;16.00;;;;;5.45;78.70;100520.78;4970334;28;46128;-72
2021/12/07 10:59:31;;;;;;;;;19.00;13.00;;;;;5.54;79.04;100518.50;4962188;28;47273;-71
2021/12/07 11:01:57;;;;;;;;;16.75;14.25;;;;;5.67;79.33;100522.53;4973687;28;45268;-72
2021/12/07 11:04:36;;;;;;;;;17.75;13.50;;;;;5.68;78.18;100511.19;4973075;28;45189;-72
2021/12/07 11:07:19;;;;;;;;;15.75;12.25;;;;;5.77;78.84;100508.03;4975551;28;45368;-72
2021/12/07 11:09:55;;;;;;;;;15.75;12.50;;;;;5.80;78.24;100489.81;4976343;28;45722;-73
2021/12/07 11:12:20;;;;;;;;;39.50;33.50;;;;;5.79;78.36;100457.44;4956149;28;45271;-72
2021/12/07 11:14:51;;;;;;;;;32.00;29.75;;;;;5.89;78.43;100453.44;4955895;28;45328;-72
2021/12/07 11:17:23;;;;;;;;;21.00;17.50;;;;;5.88;78.33;100433.31;4955516;28;45234;-71
2021/12/07 11:19:48;;;;;;;;;6.75;4.75;;;;;5.99;79.03;100433.72;4955753;28;46638;-71
2021/12/07 11:22:17;;;;;;;;;36.25;26.00;;;;;5.93;78.97;100401.97;4955442;28;45355;-71
2021/12/07 11:24:44;;;;;;;;;36.75;29.75;;;;;6.10;78.21;100414.00;4955482;28;45427;-71
2021/12/07 11:30:01;;;;;;;;;21.25;21.25;;;;;6.21;78.98;100383.78;4964303;28;45449;-73
2021/12/07 11:32:27;;;;;;;;;20.75;18.00;;;;;6.12;79.04;100361.59;4973175;28;45122;-72
2021/12/07 11:34:53;;;;;;;;;17.50;17.00;;;;;6.30;78.46;100369.19;4978392;28;45489;-72
2021/12/07 11:37:22;;;;;;;;;86.67;68.00;;;;;6.37;78.21;100364.22;4979139;28;45300;-72
2021/12/07 11:39:53;;;;;;;;;24.25;22.00;;;;;6.30;78.09;100335.97;4970570;28;45522;-72
2021/12/07 11:42:20;;;;;;;;;24.50;18.00;;;;;6.47;77.35;100341.81;4960065;28;45322;-72
2021/12/07 11:45:03;;;;;;;;;29.25;21.50;;;;;6.46;77.86;100329.50;4960087;28;45248;-72
2021/12/07 11:47:35;;;;;;;;;16.75;13.00;;;;;6.39;78.11;100301.28;5032594;28;45210;-72
2021/12/07 11:50:11;;;;;;;;;19.25;15.75;;;;;6.56;78.15;100307.97;4959814;28;45374;-72
2021/12/07 11:52:37;;;;;;;;;19.50;18.25;;;;;6.50;77.81;100289.41;4967473;28;45287;-73
2021/12/07 11:55:04;;;;;;;;;18.25;13.50;;;;;6.66;77.73;100306.53;4979477;27;45210;-72
2021/12/07 11:57:29;;;;;;;;;15.25;14.25;;;;;6.61;77.45;100271.34;4979510;28;45324;-72
2021/12/07 11:59:54;;;;;;;;;14.50;12.25;;;;;6.66;77.13;100275.00;4979222;28;45225;-72
2021/12/07 12:02:22;;;;;;;;;16.75;15.75;;;;;6.71;77.75;100255.03;4977726;28;45884;-72
2021/12/07 12:04:48;;;;;;;;;14.50;13.00;;;;;6.65;77.52;100232.09;4979220;28;45352;-73
2021/12/07 12:07:13;;;;;;;;;10.75;10.75;;;;;6.78;76.71;100245.59;4979095;28;45501;-72
2021/12/07 12:09:51;;;;;;;;;12.00;12.00;;;;;6.85;77.64;100243.22;4981360;28;45621;-72
2021/12/07 12:12:43;;;;;;;;;16.50;11.75;;;;;6.68;77.14;100211.19;4958379;28;46247;-72
2021/12/07 12:15:46;;;;;;;;;9.75;8.00;;;;;6.96;77.47;100240.91;4966265;28;45299;-72
2021/12/07 12:18:39;;;;;;;;;14.50;11.25;;;;;6.97;76.26;100232.19;4978407;28;45365;-72
2021/12/07 12:21:45;;;;;;;;;13.75;10.00;;;;;6.99;77.44;100227.88;4978949;28;46530;-72
2021/12/07 12:24:45;;;;;;;;;11.75;8.75;;;;;7.00;76.56;100208.66;4957475;28;45514;-72
2021/12/07 12:27:16;;;;;;;;;6.50;6.50;;;;;6.92;76.11;100194.41;4979050;28;45316;-73
2021/12/07 12:29:43;;;;;;;;;11.00;8.50;;;;;6.94;76.35;100177.81;4978921;28;45461;-72
2021/12/07 12:32:09;;;;;;;;;11.25;10.50;;;;;7.01;76.42;100180.63;4978568;28;46464;-73
2021/12/07 12:34:38;;;;;;;;;6.50;6.00;;;;;7.03;76.16;100169.31;4978788;28;45375;-72
2021/12/07 12:37:14;;;;;;;;;13.25;8.25;;;;;7.07;76.35;100154.53;4978737;28;45359;-73
2021/12/07 12:39:42;;;;;;;;;8.25;6.75;;;;;7.09;76.03;100143.22;4974285;28;47274;-73
2021/12/07 12:42:07;;;;;;;;;9.50;7.25;;;;;7.00;76.13;100116.69;4959266;28;46460;-73
2021/12/07 12:44:34;;;;;;;;;7.00;7.00;;;;;7.10;75.72;100125.69;4958718;28;45283;-73
2021/12/07 12:47:00;;;;;;;;;15.50;10.50;;;;;7.03;76.52;100106.25;5032872;28;45475;-73
2021/12/07 12:49:39;;;;;;;;;8.50;8.25;;;;;7.13;76.66;100091.63;4959039;28;45258;-73
2021/12/07 12:52:05;;;;;;;;;10.25;9.00;;;;;7.18;75.94;100090.88;4959057;28;45645;-72
2021/12/07 12:54:44;;;;;;;;;6.75;6.75;;;;;7.08;76.23;100051.19;4957692;28;45260;-73
2021/12/07 12:57:13;;;;;;;;;8.00;7.00;;;;;7.18;75.93;100072.50;4972533;28;45382;-73
2021/12/07 12:59:41;;;;;;;;;3.50;3.50;;;;;7.01;76.19;100044.88;4959048;28;45228;-73
2021/12/07 13:02:06;;;;;;;;;3.25;3.25;;;;;7.21;76.11;100052.41;4969158;28;46131;-71
2021/12/07 13:04:34;;;;;;;;;7.25;4.50;;;;;7.15;75.77;100026.84;4977701;28;45280;-73
2021/12/07 13:09:45;;;;;;;;;7.50;4.00;;;;;7.21;75.62;100042.75;4983260;28;45412;-73
2021/12/07 13:12:20;;;;;;;;;2.75;1.75;;;;;7.20;74.97;100027.84;4958888;28;45360;-72
2021/12/07 13:14:59;;;;;;;;;7.75;4.00;;;;;7.28;75.39;100039.47;4958589;28;45379;-73
2021/12/07 13:17:41;;;;;;;;;4.00;4.00;;;;;7.26;75.15;100035.00;4958892;28;45251;-72